sensor_id;sensor_type;location;lat;lon;timestamp;P1;durP1;ratioP1;P2;durP2;ratioP2
38567;SDS011;24338;48.280;10.970;2023-03-01T00:01:36;23.17;;;13.98;;
38567;SDS011;24338;48.280;10.970;2023-03-01T00:04:03;23.25;;;14.40;;
38567;SDS011;24338;48.280;10.970;2023-03-01T00:06:30;24.27;;;14.65;;
38567;SDS011;24338;48.280;10.970;2023-03-01T00:08:57;22.55;;;14.15;;
38567;SDS011;24338;48.280;10.970;2023-03-01T00:11:25;22.08;;;13.88;;
38567;SDS011;24338;48.280;10.970;2023-03-01T00:13:55;25.30;;;14.68;;
38567;SDS011;24338;48.280;10.970;2023-03-01T00:16:25;23.13;;;14.75;;
38567;SDS011;24338;48.280;10.970;2023-03-01T00:18:55;23.50;;;14.95;;
38567;SDS011;24338;48.280;10.970;2023-03-01T04:50:06;27.07;;;15.00;;
38567;SDS011;24338;48.280;10.970;2023-03-01T04:52:34;24.05;;;14.85;;
38567;SDS011;24338;48.280;10.970;2023-03-01T04:55:01;24.67;;;15.95;;
38567;SDS011;24338;48.280;10.970;2023-03-01T04:57:29;22.27;;;14.10;;
38567;SDS011;24338;48.280;10.970;2023-03-01T04:59:57;22.17;;;14.18;;
38567;SDS011;24338;48.280;10.970;2023-03-01T05:02:24;23.25;;;15.10;;
38567;SDS011;24338;48.280;10.970;2023-03-01T05:04:51;25.33;;;16.38;;
38567;SDS011;24338;48.280;10.970;2023-03-01T05:07:18;23.77;;;15.18;;
38567;SDS011;24338;48.280;10.970;2023-03-01T05:09:47;23.67;;;14.93;;
38567;SDS011;24338;48.280;10.970;2023-03-01T05:12:14;26.40;;;15.20;;
38567;SDS011;24338;48.280;10.970;2023-03-01T05:14:41;26.60;;;16.88;;
38567;SDS011;24338;48.280;10.970;2023-03-01T05:17:08;26.10;;;15.55;;
38567;SDS011;24338;48.280;10.970;2023-03-01T05:19:35;29.55;;;16.48;;
38567;SDS011;24338;48.280;10.970;2023-03-01T05:22:01;27.10;;;14.57;;
38567;SDS011;24338;48.280;10.970;2023-03-01T05:24:30;26.88;;;16.00;;
38567;SDS011;24338;48.280;10.970;2023-03-01T05:27:01;24.15;;;15.38;;
38567;SDS011;24338;48.280;10.970;2023-03-01T05:29:29;24.60;;;14.10;;
38567;SDS011;24338;48.280;10.970;2023-03-01T05:32:01;27.02;;;16.92;;
38567;SDS011;24338;48.280;10.970;2023-03-01T05:34:33;24.63;;;16.25;;
38567;SDS011;24338;48.280;10.970;2023-03-01T05:37:01;27.75;;;16.23;;
38567;SDS011;24338;48.280;10.970;2023-03-01T05:39:29;27.40;;;16.20;;
38567;SDS011;24338;48.280;10.970;2023-03-01T05:41:57;28.73;;;16.00;;
38567;SDS011;24338;48.280;10.970;2023-03-01T05:44:26;27.27;;;16.23;;
38567;SDS011;24338;48.280;10.970;2023-03-01T05:46:53;28.83;;;16.17;;
38567;SDS011;24338;48.280;10.970;2023-03-01T05:49:20;24.23;;;16.60;;
38567;SDS011;24338;48.280;10.970;2023-03-01T05:51:51;24.38;;;15.10;;
38567;SDS011;24338;48.280;10.970;2023-03-01T05:54:19;26.25;;;16.33;;
38567;SDS011;24338;48.280;10.970;2023-03-01T05:56:47;26.52;;;16.23;;
38567;SDS011;24338;48.280;10.970;2023-03-01T05:59:15;25.73;;;16.00;;
38567;SDS011;24338;48.280;10.970;2023-03-01T06:01:42;24.05;;;15.52;;
38567;SDS011;24338;48.280;10.970;2023-03-01T06:04:09;26.17;;;15.27;;
38567;SDS011;24338;48.280;10.970;2023-03-01T06:06:36;27.20;;;16.08;;
38567;SDS011;24338;48.280;10.970;2023-03-01T06:09:04;30.40;;;15.40;;
38567;SDS011;24338;48.280;10.970;2023-03-01T06:11:34;28.38;;;16.90;;
38567;SDS011;24338;48.280;10.970;2023-03-01T06:14:01;27.48;;;17.08;;
38567;SDS011;24338;48.280;10.970;2023-03-01T06:16:29;24.45;;;16.08;;
38567;SDS011;24338;48.280;10.970;2023-03-01T06:18:56;25.92;;;16.60;;
38567;SDS011;24338;48.280;10.970;2023-03-01T06:21:23;25.17;;;14.77;;
38567;SDS011;24338;48.280;10.970;2023-03-01T06:23:49;25.63;;;16.55;;
38567;SDS011;24338;48.280;10.970;2023-03-01T06:26:18;25.80;;;15.40;;
38567;SDS011;24338;48.280;10.970;2023-03-01T06:28:44;24.52;;;15.40;;
38567;SDS011;24338;48.280;10.970;2023-03-01T06:31:12;27.92;;;17.42;;
38567;SDS011;24338;48.280;10.970;2023-03-01T06:33:39;26.02;;;16.60;;
38567;SDS011;24338;48.280;10.970;2023-03-01T06:36:06;26.85;;;16.20;;
38567;SDS011;24338;48.280;10.970;2023-03-01T06:38:33;26.27;;;15.60;;
38567;SDS011;24338;48.280;10.970;2023-03-01T06:41:00;26.02;;;15.45;;
38567;SDS011;24338;48.280;10.970;2023-03-01T06:43:28;24.90;;;16.67;;
38567;SDS011;24338;48.280;10.970;2023-03-01T06:45:55;24.10;;;15.13;;
38567;SDS011;24338;48.280;10.970;2023-03-01T06:48:22;32.38;;;15.93;;
38567;SDS011;24338;48.280;10.970;2023-03-01T06:50:48;25.67;;;15.38;;
38567;SDS011;24338;48.280;10.970;2023-03-01T06:53:15;25.42;;;15.70;;
38567;SDS011;24338;48.280;10.970;2023-03-01T06:55:42;27.40;;;16.35;;
38567;SDS011;24338;48.280;10.970;2023-03-01T06:58:09;22.55;;;14.52;;
38567;SDS011;24338;48.280;10.970;2023-03-01T07:00:36;23.73;;;15.45;;
38567;SDS011;24338;48.280;10.970;2023-03-01T07:03:03;25.30;;;15.00;;
38567;SDS011;24338;48.280;10.970;2023-03-01T07:05:30;25.00;;;14.55;;
38567;SDS011;24338;48.280;10.970;2023-03-01T07:07:59;24.17;;;14.75;;
38567;SDS011;24338;48.280;10.970;2023-03-01T07:10:26;23.00;;;14.65;;
38567;SDS011;24338;48.280;10.970;2023-03-01T07:12:58;29.15;;;17.00;;
38567;SDS011;24338;48.280;10.970;2023-03-01T07:15:25;24.83;;;14.98;;
38567;SDS011;24338;48.280;10.970;2023-03-01T07:17:53;27.65;;;15.75;;
38567;SDS011;24338;48.280;10.970;2023-03-01T07:20:20;25.13;;;14.63;;
38567;SDS011;24338;48.280;10.970;2023-03-01T07:22:51;28.30;;;16.00;;
38567;SDS011;24338;48.280;10.970;2023-03-01T07:25:19;25.30;;;16.00;;
38567;SDS011;24338;48.280;10.970;2023-03-01T07:27:51;28.88;;;15.00;;
38567;SDS011;24338;48.280;10.970;2023-03-01T07:30:19;26.63;;;15.98;;
38567;SDS011;24338;48.280;10.970;2023-03-01T07:32:46;22.05;;;14.40;;
38567;SDS011;24338;48.280;10.970;2023-03-01T07:35:13;32.40;;;18.38;;
38567;SDS011;24338;48.280;10.970;2023-03-01T07:37:41;31.67;;;16.17;;
38567;SDS011;24338;48.280;10.970;2023-03-01T07:40:08;29.17;;;17.00;;
38567;SDS011;24338;48.280;10.970;2023-03-01T07:42:35;25.52;;;15.80;;
38567;SDS011;24338;48.280;10.970;2023-03-01T07:45:02;28.70;;;17.90;;
38567;SDS011;24338;48.280;10.970;2023-03-01T07:47:30;24.85;;;16.38;;
38567;SDS011;24338;48.280;10.970;2023-03-01T07:49:58;25.08;;;15.98;;
38567;SDS011;24338;48.280;10.970;2023-03-01T07:52:25;30.25;;;17.85;;
38567;SDS011;24338;48.280;10.970;2023-03-01T07:54:52;32.65;;;18.98;;
38567;SDS011;24338;48.280;10.970;2023-03-01T07:57:19;30.50;;;18.02;;
38567;SDS011;24338;48.280;10.970;2023-03-01T07:59:45;29.98;;;18.75;;
38567;SDS011;24338;48.280;10.970;2023-03-01T08:02:12;29.88;;;17.38;;
38567;SDS011;24338;48.280;10.970;2023-03-01T08:04:41;29.23;;;17.23;;
38567;SDS011;24338;48.280;10.970;2023-03-01T08:07:08;33.80;;;18.08;;
38567;SDS011;24338;48.280;10.970;2023-03-01T08:09:35;31.30;;;18.77;;
38567;SDS011;24338;48.280;10.970;2023-03-01T08:12:03;39.13;;;18.92;;
38567;SDS011;24338;48.280;10.970;2023-03-01T08:14:31;40.30;;;16.60;;
38567;SDS011;24338;48.280;10.970;2023-03-01T08:16:58;40.13;;;18.40;;
38567;SDS011;24338;48.280;10.970;2023-03-01T08:19:25;28.30;;;16.30;;
38567;SDS011;24338;48.280;10.970;2023-03-01T08:21:54;28.00;;;15.50;;
38567;SDS011;24338;48.280;10.970;2023-03-01T08:24:24;27.65;;;16.98;;
38567;SDS011;24338;48.280;10.970;2023-03-01T08:26:51;27.20;;;17.02;;
38567;SDS011;24338;48.280;10.970;2023-03-01T08:29:18;27.90;;;16.27;;
38567;SDS011;24338;48.280;10.970;2023-03-01T08:31:45;27.63;;;16.60;;
38567;SDS011;24338;48.280;10.970;2023-03-01T08:34:13;31.52;;;16.92;;
38567;SDS011;24338;48.280;10.970;2023-03-01T08:36:41;24.95;;;15.93;;
38567;SDS011;24338;48.280;10.970;2023-03-01T08:39:11;25.63;;;15.77;;
38567;SDS011;24338;48.280;10.970;2023-03-01T08:41:39;26.45;;;16.20;;
38567;SDS011;24338;48.280;10.970;2023-03-01T08:44:06;27.90;;;16.27;;
38567;SDS011;24338;48.280;10.970;2023-03-01T08:46:36;25.50;;;15.05;;
38567;SDS011;24338;48.280;10.970;2023-03-01T08:49:07;27.38;;;16.55;;
38567;SDS011;24338;48.280;10.970;2023-03-01T08:51:37;31.77;;;16.92;;
38567;SDS011;24338;48.280;10.970;2023-03-01T08:54:04;27.25;;;16.55;;
38567;SDS011;24338;48.280;10.970;2023-03-01T08:56:33;28.65;;;16.42;;
38567;SDS011;24338;48.280;10.970;2023-03-01T08:59:00;27.13;;;15.77;;
38567;SDS011;24338;48.280;10.970;2023-03-01T09:01:27;28.63;;;16.70;;
38567;SDS011;24338;48.280;10.970;2023-03-01T09:03:53;31.17;;;18.45;;
38567;SDS011;24338;48.280;10.970;2023-03-01T09:06:20;28.80;;;17.40;;
38567;SDS011;24338;48.280;10.970;2023-03-01T09:08:48;27.35;;;16.67;;
38567;SDS011;24338;48.280;10.970;2023-03-01T09:11:20;24.77;;;15.65;;
38567;SDS011;24338;48.280;10.970;2023-03-01T09:13:48;28.60;;;17.90;;
38567;SDS011;24338;48.280;10.970;2023-03-01T09:16:16;26.83;;;16.38;;
38567;SDS011;24338;48.280;10.970;2023-03-01T09:18:48;27.45;;;15.38;;
38567;SDS011;24338;48.280;10.970;2023-03-01T09:21:17;27.45;;;16.95;;
38567;SDS011;24338;48.280;10.970;2023-03-01T09:24:02;28.90;;;17.02;;
38567;SDS011;24338;48.280;10.970;2023-03-01T09:26:29;25.83;;;17.05;;
38567;SDS011;24338;48.280;10.970;2023-03-01T09:28:56;28.58;;;17.40;;
38567;SDS011;24338;48.280;10.970;2023-03-01T09:31:24;30.17;;;17.52;;
38567;SDS011;24338;48.280;10.970;2023-03-01T09:33:51;27.35;;;15.77;;
38567;SDS011;24338;48.280;10.970;2023-03-01T09:36:20;28.48;;;17.65;;
38567;SDS011;24338;48.280;10.970;2023-03-01T09:38:49;28.33;;;15.50;;
38567;SDS011;24338;48.280;10.970;2023-03-01T09:44:16;29.35;;;16.73;;
38567;SDS011;24338;48.280;10.970;2023-03-01T09:47:03;28.77;;;17.50;;
38567;SDS011;24338;48.280;10.970;2023-03-01T09:49:32;28.00;;;16.70;;
38567;SDS011;24338;48.280;10.970;2023-03-01T09:55:04;28.23;;;16.57;;
38567;SDS011;24338;48.280;10.970;2023-03-01T09:58:27;28.88;;;16.80;;
38567;SDS011;24338;48.280;10.970;2023-03-01T10:00:47;26.30;;;16.48;;
38567;SDS011;24338;48.280;10.970;2023-03-01T10:03:24;25.67;;;16.35;;
38567;SDS011;24338;48.280;10.970;2023-03-01T10:08:48;28.20;;;17.03;;
38567;SDS011;24338;48.280;10.970;2023-03-01T10:14:13;29.60;;;16.85;;
38567;SDS011;24338;48.280;10.970;2023-03-01T10:16:51;29.23;;;17.90;;
38567;SDS011;24338;48.280;10.970;2023-03-01T10:19:25;24.70;;;16.45;;
38567;SDS011;24338;48.280;10.970;2023-03-01T10:22:03;28.10;;;18.98;;
38567;SDS011;24338;48.280;10.970;2023-03-01T10:24:39;27.00;;;17.08;;
38567;SDS011;24338;48.280;10.970;2023-03-01T10:27:07;26.25;;;16.75;;
38567;SDS011;24338;48.280;10.970;2023-03-01T10:32:12;27.27;;;15.57;;
38567;SDS011;24338;48.280;10.970;2023-03-01T10:34:39;25.98;;;17.33;;
38567;SDS011;24338;48.280;10.970;2023-03-01T10:37:14;26.10;;;16.65;;
38567;SDS011;24338;48.280;10.970;2023-03-01T10:39:57;27.27;;;17.35;;
38567;SDS011;24338;48.280;10.970;2023-03-01T10:42:45;25.23;;;16.05;;
38567;SDS011;24338;48.280;10.970;2023-03-01T10:45:25;28.15;;;17.40;;
38567;SDS011;24338;48.280;10.970;2023-03-01T10:50:44;28.60;;;16.30;;
38567;SDS011;24338;48.280;10.970;2023-03-01T10:53:21;23.95;;;15.52;;
38567;SDS011;24338;48.280;10.970;2023-03-01T10:58:37;23.23;;;14.43;;
38567;SDS011;24338;48.280;10.970;2023-03-01T11:01:06;23.58;;;15.88;;
38567;SDS011;24338;48.280;10.970;2023-03-01T11:06:37;24.13;;;16.77;;
38567;SDS011;24338;48.280;10.970;2023-03-01T11:09:16;27.40;;;17.70;;
38567;SDS011;24338;48.280;10.970;2023-03-01T11:11:52;25.77;;;17.13;;
38567;SDS011;24338;48.280;10.970;2023-03-01T11:17:12;27.00;;;16.73;;
38567;SDS011;24338;48.280;10.970;2023-03-01T11:22:47;26.85;;;17.98;;
38567;SDS011;24338;48.280;10.970;2023-03-01T11:25:26;31.40;;;17.48;;
38567;SDS011;24338;48.280;10.970;2023-03-01T11:27:59;24.83;;;16.88;;
38567;SDS011;24338;48.280;10.970;2023-03-01T11:33:11;26.67;;;17.23;;
38567;SDS011;24338;48.280;10.970;2023-03-01T11:38:35;26.90;;;17.83;;
38567;SDS011;24338;48.280;10.970;2023-03-01T11:41:13;25.95;;;17.42;;
38567;SDS011;24338;48.280;10.970;2023-03-01T11:57:43;25.67;;;16.77;;
38567;SDS011;24338;48.280;10.970;2023-03-01T12:08:55;29.95;;;17.58;;
38567;SDS011;24338;48.280;10.970;2023-03-01T12:14:25;26.60;;;16.05;;
38567;SDS011;24338;48.280;10.970;2023-03-01T12:20:21;20.73;;;15.45;;
38567;SDS011;24338;48.280;10.970;2023-03-01T12:25:21;28.10;;;16.52;;
38567;SDS011;24338;48.280;10.970;2023-03-01T12:28:18;26.48;;;16.38;;
38567;SDS011;24338;48.280;10.970;2023-03-01T12:39:07;24.42;;;15.75;;
38567;SDS011;24338;48.280;10.970;2023-03-01T12:41:51;27.90;;;17.10;;
38567;SDS011;24338;48.280;10.970;2023-03-01T12:50:02;22.92;;;15.10;;
38567;SDS011;24338;48.280;10.970;2023-03-01T12:52:43;21.85;;;14.68;;
38567;SDS011;24338;48.280;10.970;2023-03-01T12:55:24;22.98;;;15.43;;
38567;SDS011;24338;48.280;10.970;2023-03-01T13:00:33;25.67;;;16.23;;
38567;SDS011;24338;48.280;10.970;2023-03-01T13:06:11;24.60;;;16.77;;
38567;SDS011;24338;48.280;10.970;2023-03-01T13:11:21;25.52;;;16.55;;
38567;SDS011;24338;48.280;10.970;2023-03-01T13:13:49;23.20;;;17.35;;
38567;SDS011;24338;48.280;10.970;2023-03-01T13:16:21;23.83;;;16.58;;
38567;SDS011;24338;48.280;10.970;2023-03-01T13:19:06;23.17;;;15.65;;
38567;SDS011;24338;48.280;10.970;2023-03-01T13:21:33;27.17;;;16.50;;
38567;SDS011;24338;48.280;10.970;2023-03-01T13:24:00;24.52;;;15.68;;
38567;SDS011;24338;48.280;10.970;2023-03-01T13:26:27;23.60;;;15.45;;
38567;SDS011;24338;48.280;10.970;2023-03-01T13:28:55;23.65;;;15.98;;
38567;SDS011;24338;48.280;10.970;2023-03-01T13:34:02;22.23;;;15.23;;
38567;SDS011;24338;48.280;10.970;2023-03-01T13:39:04;21.25;;;14.90;;
38567;SDS011;24338;48.280;10.970;2023-03-01T13:41:54;23.38;;;16.42;;
38567;SDS011;24338;48.280;10.970;2023-03-01T13:44:37;21.55;;;14.88;;
38567;SDS011;24338;48.280;10.970;2023-03-01T13:49:47;24.15;;;16.15;;
38567;SDS011;24338;48.280;10.970;2023-03-01T13:55:42;20.45;;;15.57;;
38567;SDS011;24338;48.280;10.970;2023-03-01T13:58:31;22.02;;;14.25;;
38567;SDS011;24338;48.280;10.970;2023-03-01T14:01:06;24.77;;;14.77;;
38567;SDS011;24338;48.280;10.970;2023-03-01T14:03:46;26.08;;;15.00;;
38567;SDS011;24338;48.280;10.970;2023-03-01T14:06:20;31.95;;;17.35;;
38567;SDS011;24338;48.280;10.970;2023-03-01T14:08:50;26.35;;;16.90;;
38567;SDS011;24338;48.280;10.970;2023-03-01T14:19:54;25.15;;;16.20;;
38567;SDS011;24338;48.280;10.970;2023-03-01T14:22:27;21.52;;;14.52;;
38567;SDS011;24338;48.280;10.970;2023-03-01T14:24:59;21.88;;;13.93;;
38567;SDS011;24338;48.280;10.970;2023-03-01T14:27:43;22.20;;;14.20;;
38567;SDS011;24338;48.280;10.970;2023-03-01T14:30:24;18.92;;;13.80;;
38567;SDS011;24338;48.280;10.970;2023-03-01T14:32:58;23.48;;;14.18;;
38567;SDS011;24338;48.280;10.970;2023-03-01T14:35:27;23.75;;;13.80;;
38567;SDS011;24338;48.280;10.970;2023-03-01T14:37:56;22.75;;;13.73;;
38567;SDS011;24338;48.280;10.970;2023-03-01T14:40:28;19.08;;;13.48;;
38567;SDS011;24338;48.280;10.970;2023-03-01T14:42:57;22.20;;;13.85;;
38567;SDS011;24338;48.280;10.970;2023-03-01T14:45:27;20.40;;;14.20;;
38567;SDS011;24338;48.280;10.970;2023-03-01T14:47:58;20.88;;;13.73;;
38567;SDS011;24338;48.280;10.970;2023-03-01T14:50:29;20.20;;;15.13;;
38567;SDS011;24338;48.280;10.970;2023-03-01T14:53:02;21.92;;;14.75;;
38567;SDS011;24338;48.280;10.970;2023-03-01T14:55:32;23.35;;;15.07;;
38567;SDS011;24338;48.280;10.970;2023-03-01T14:58:04;22.15;;;13.40;;
38567;SDS011;24338;48.280;10.970;2023-03-01T15:00:32;23.27;;;14.85;;
38567;SDS011;24338;48.280;10.970;2023-03-01T15:03:01;21.77;;;13.85;;
38567;SDS011;24338;48.280;10.970;2023-03-01T15:05:36;22.63;;;14.30;;
38567;SDS011;24338;48.280;10.970;2023-03-01T15:08:03;23.17;;;14.82;;
38567;SDS011;24338;48.280;10.970;2023-03-01T15:10:32;21.45;;;13.85;;
38567;SDS011;24338;48.280;10.970;2023-03-01T15:13:19;21.58;;;13.85;;
38567;SDS011;24338;48.280;10.970;2023-03-01T15:15:49;20.02;;;13.13;;
38567;SDS011;24338;48.280;10.970;2023-03-01T15:21:07;21.63;;;15.00;;
38567;SDS011;24338;48.280;10.970;2023-03-01T15:23:47;17.98;;;12.18;;
38567;SDS011;24338;48.280;10.970;2023-03-01T15:26:30;19.55;;;13.23;;
38567;SDS011;24338;48.280;10.970;2023-03-01T15:29:01;19.92;;;13.80;;
38567;SDS011;24338;48.280;10.970;2023-03-01T15:31:29;22.45;;;14.93;;
38567;SDS011;24338;48.280;10.970;2023-03-01T15:34:35;21.08;;;13.68;;
38567;SDS011;24338;48.280;10.970;2023-03-01T15:36:56;20.48;;;14.60;;
38567;SDS011;24338;48.280;10.970;2023-03-01T15:39:39;21.55;;;13.15;;
38567;SDS011;24338;48.280;10.970;2023-03-01T15:42:35;20.40;;;13.82;;
38567;SDS011;24338;48.280;10.970;2023-03-01T15:47:39;19.88;;;13.63;;
38567;SDS011;24338;48.280;10.970;2023-03-01T15:50:21;19.95;;;12.55;;
38567;SDS011;24338;48.280;10.970;2023-03-01T15:52:49;19.45;;;11.98;;
38567;SDS011;24338;48.280;10.970;2023-03-01T15:55:24;21.60;;;13.57;;
38567;SDS011;24338;48.280;10.970;2023-03-01T16:00:45;19.55;;;13.63;;
38567;SDS011;24338;48.280;10.970;2023-03-01T16:03:26;19.95;;;12.80;;
38567;SDS011;24338;48.280;10.970;2023-03-01T16:05:53;20.55;;;13.25;;
38567;SDS011;24338;48.280;10.970;2023-03-01T16:08:20;19.30;;;12.75;;
38567;SDS011;24338;48.280;10.970;2023-03-01T16:10:46;22.30;;;13.55;;
38567;SDS011;24338;48.280;10.970;2023-03-01T16:13:16;21.52;;;14.57;;
38567;SDS011;24338;48.280;10.970;2023-03-01T16:15:43;19.05;;;13.35;;
38567;SDS011;24338;48.280;10.970;2023-03-01T16:18:10;19.48;;;12.80;;
38567;SDS011;24338;48.280;10.970;2023-03-01T16:20:38;22.85;;;15.07;;
38567;SDS011;24338;48.280;10.970;2023-03-01T16:23:07;22.73;;;14.32;;
38567;SDS011;24338;48.280;10.970;2023-03-01T16:25:35;19.10;;;12.95;;
38567;SDS011;24338;48.280;10.970;2023-03-01T16:28:02;22.77;;;13.82;;
38567;SDS011;24338;48.280;10.970;2023-03-01T16:30:35;20.30;;;13.23;;
38567;SDS011;24338;48.280;10.970;2023-03-01T16:33:03;18.77;;;12.45;;
38567;SDS011;24338;48.280;10.970;2023-03-01T16:35:49;24.45;;;15.05;;
38567;SDS011;24338;48.280;10.970;2023-03-01T16:38:16;28.13;;;15.05;;
38567;SDS011;24338;48.280;10.970;2023-03-01T16:40:46;26.25;;;15.65;;
38567;SDS011;24338;48.280;10.970;2023-03-01T16:43:15;30.15;;;17.15;;
38567;SDS011;24338;48.280;10.970;2023-03-01T16:45:42;24.58;;;15.70;;
38567;SDS011;24338;48.280;10.970;2023-03-01T16:48:11;22.88;;;14.07;;
38567;SDS011;24338;48.280;10.970;2023-03-01T16:50:38;21.02;;;14.25;;
38567;SDS011;24338;48.280;10.970;2023-03-01T16:53:05;23.55;;;13.25;;
38567;SDS011;24338;48.280;10.970;2023-03-01T16:55:32;22.88;;;14.60;;
38567;SDS011;24338;48.280;10.970;2023-03-01T16:58:02;23.20;;;14.32;;
38567;SDS011;24338;48.280;10.970;2023-03-01T17:00:30;25.70;;;14.73;;
38567;SDS011;24338;48.280;10.970;2023-03-01T17:02:57;23.13;;;14.43;;
38567;SDS011;24338;48.280;10.970;2023-03-01T17:05:24;22.75;;;15.05;;
38567;SDS011;24338;48.280;10.970;2023-03-01T17:07:51;25.05;;;16.63;;
38567;SDS011;24338;48.280;10.970;2023-03-01T17:10:21;25.83;;;17.27;;
38567;SDS011;24338;48.280;10.970;2023-03-01T17:12:48;22.88;;;15.23;;
38567;SDS011;24338;48.280;10.970;2023-03-01T17:15:16;22.13;;;15.10;;
38567;SDS011;24338;48.280;10.970;2023-03-01T17:17:43;21.48;;;13.73;;
38567;SDS011;24338;48.280;10.970;2023-03-01T17:20:10;24.65;;;16.55;;
38567;SDS011;24338;48.280;10.970;2023-03-01T17:22:37;24.27;;;14.88;;
38567;SDS011;24338;48.280;10.970;2023-03-01T17:25:04;29.42;;;17.90;;
38567;SDS011;24338;48.280;10.970;2023-03-01T17:27:34;30.80;;;18.17;;
38567;SDS011;24338;48.280;10.970;2023-03-01T17:30:03;29.00;;;17.65;;
38567;SDS011;24338;48.280;10.970;2023-03-01T17:32:32;27.10;;;17.35;;
38567;SDS011;24338;48.280;10.970;2023-03-01T17:34:59;23.92;;;15.82;;
38567;SDS011;24338;48.280;10.970;2023-03-01T17:37:26;24.30;;;16.52;;
38567;SDS011;24338;48.280;10.970;2023-03-01T17:39:53;23.27;;;16.25;;
38567;SDS011;24338;48.280;10.970;2023-03-01T17:42:19;22.45;;;15.75;;
38567;SDS011;24338;48.280;10.970;2023-03-01T17:44:46;19.85;;;13.45;;
38567;SDS011;24338;48.280;10.970;2023-03-01T17:47:13;20.92;;;13.50;;
38567;SDS011;24338;48.280;10.970;2023-03-01T17:49:40;21.40;;;14.32;;
38567;SDS011;24338;48.280;10.970;2023-03-01T17:52:07;23.67;;;15.60;;
38567;SDS011;24338;48.280;10.970;2023-03-01T17:54:33;18.77;;;13.52;;
38567;SDS011;24338;48.280;10.970;2023-03-01T17:57:00;20.75;;;14.55;;
38567;SDS011;24338;48.280;10.970;2023-03-01T17:59:27;22.00;;;14.15;;
38567;SDS011;24338;48.280;10.970;2023-03-01T18:01:56;20.60;;;13.18;;
38567;SDS011;24338;48.280;10.970;2023-03-01T18:04:23;26.20;;;15.23;;
38567;SDS011;24338;48.280;10.970;2023-03-01T18:06:50;19.55;;;13.70;;
38567;SDS011;24338;48.280;10.970;2023-03-01T18:09:17;23.77;;;14.98;;
38567;SDS011;24338;48.280;10.970;2023-03-01T18:11:44;20.85;;;13.77;;
38567;SDS011;24338;48.280;10.970;2023-03-01T18:14:13;22.38;;;13.90;;
38567;SDS011;24338;48.280;10.970;2023-03-01T18:16:39;23.33;;;15.15;;
38567;SDS011;24338;48.280;10.970;2023-03-01T18:19:06;22.13;;;15.50;;
38567;SDS011;24338;48.280;10.970;2023-03-01T18:21:33;20.50;;;14.00;;
38567;SDS011;24338;48.280;10.970;2023-03-01T18:24:00;23.30;;;15.27;;
38567;SDS011;24338;48.280;10.970;2023-03-01T18:26:27;23.90;;;15.60;;
38567;SDS011;24338;48.280;10.970;2023-03-01T18:28:55;24.35;;;15.65;;
38567;SDS011;24338;48.280;10.970;2023-03-01T18:31:23;23.60;;;15.20;;
38567;SDS011;24338;48.280;10.970;2023-03-01T18:33:51;24.48;;;16.17;;
38567;SDS011;24338;48.280;10.970;2023-03-01T18:36:24;27.73;;;15.43;;
38567;SDS011;24338;48.280;10.970;2023-03-01T18:38:56;24.75;;;14.95;;
38567;SDS011;24338;48.280;10.970;2023-03-01T18:41:24;21.98;;;15.27;;
38567;SDS011;24338;48.280;10.970;2023-03-01T18:43:52;23.42;;;15.07;;
38567;SDS011;24338;48.280;10.970;2023-03-01T18:46:19;27.52;;;16.73;;
38567;SDS011;24338;48.280;10.970;2023-03-01T18:48:47;27.17;;;16.45;;
38567;SDS011;24338;48.280;10.970;2023-03-01T18:51:18;30.13;;;19.33;;
38567;SDS011;24338;48.280;10.970;2023-03-01T18:53:47;32.95;;;20.85;;
38567;SDS011;24338;48.280;10.970;2023-03-01T18:56:14;38.90;;;24.08;;
38567;SDS011;24338;48.280;10.970;2023-03-01T18:58:41;42.78;;;21.20;;
38567;SDS011;24338;48.280;10.970;2023-03-01T19:01:18;40.47;;;23.98;;
38567;SDS011;24338;48.280;10.970;2023-03-01T19:03:47;37.88;;;20.42;;
38567;SDS011;24338;48.280;10.970;2023-03-01T19:06:15;29.13;;;18.63;;
38567;SDS011;24338;48.280;10.970;2023-03-01T19:08:42;29.67;;;18.52;;
38567;SDS011;24338;48.280;10.970;2023-03-01T19:11:10;26.85;;;16.85;;
38567;SDS011;24338;48.280;10.970;2023-03-01T19:13:38;26.08;;;15.88;;
38567;SDS011;24338;48.280;10.970;2023-03-01T19:18:37;28.95;;;16.67;;
38567;SDS011;24338;48.280;10.970;2023-03-01T19:21:06;27.75;;;17.92;;
38567;SDS011;24338;48.280;10.970;2023-03-01T19:23:34;26.70;;;18.33;;
38567;SDS011;24338;48.280;10.970;2023-03-01T19:26:07;27.80;;;17.77;;
38567;SDS011;24338;48.280;10.970;2023-03-01T19:28:36;29.80;;;17.73;;
38567;SDS011;24338;48.280;10.970;2023-03-01T19:31:06;22.80;;;15.30;;
38567;SDS011;24338;48.280;10.970;2023-03-01T19:33:35;26.58;;;17.58;;
38567;SDS011;24338;48.280;10.970;2023-03-01T19:36:02;32.55;;;19.45;;
38567;SDS011;24338;48.280;10.970;2023-03-01T19:38:29;27.80;;;19.85;;
38567;SDS011;24338;48.280;10.970;2023-03-01T19:40:57;31.75;;;21.13;;
38567;SDS011;24338;48.280;10.970;2023-03-01T19:43:23;32.97;;;21.65;;
38567;SDS011;24338;48.280;10.970;2023-03-01T19:45:51;32.38;;;20.45;;
38567;SDS011;24338;48.280;10.970;2023-03-01T19:48:18;33.55;;;20.73;;
38567;SDS011;24338;48.280;10.970;2023-03-01T19:50:45;31.60;;;20.10;;
38567;SDS011;24338;48.280;10.970;2023-03-01T19:53:13;35.47;;;18.35;;
38567;SDS011;24338;48.280;10.970;2023-03-01T19:55:40;32.60;;;19.15;;
38567;SDS011;24338;48.280;10.970;2023-03-01T19:58:08;28.27;;;17.02;;
38567;SDS011;24338;48.280;10.970;2023-03-01T20:00:36;32.00;;;18.80;;
38567;SDS011;24338;48.280;10.970;2023-03-01T20:03:04;27.05;;;16.95;;
38567;SDS011;24338;48.280;10.970;2023-03-01T20:05:34;26.02;;;17.52;;
38567;SDS011;24338;48.280;10.970;2023-03-01T20:08:02;30.47;;;17.73;;
38567;SDS011;24338;48.280;10.970;2023-03-01T20:10:31;31.15;;;18.75;;
38567;SDS011;24338;48.280;10.970;2023-03-01T20:12:58;30.67;;;18.52;;
38567;SDS011;24338;48.280;10.970;2023-03-01T20:15:27;25.30;;;16.35;;
38567;SDS011;24338;48.280;10.970;2023-03-01T20:17:54;28.88;;;17.88;;
38567;SDS011;24338;48.280;10.970;2023-03-01T20:20:21;26.67;;;17.92;;
38567;SDS011;24338;48.280;10.970;2023-03-01T20:22:48;30.45;;;18.63;;
38567;SDS011;24338;48.280;10.970;2023-03-01T20:25:15;28.63;;;20.63;;
38567;SDS011;24338;48.280;10.970;2023-03-01T20:27:42;35.65;;;20.85;;
38567;SDS011;24338;48.280;10.970;2023-03-01T20:30:14;28.80;;;18.17;;
38567;SDS011;24338;48.280;10.970;2023-03-01T20:32:41;31.35;;;17.77;;
38567;SDS011;24338;48.280;10.970;2023-03-01T20:35:08;26.80;;;18.05;;
38567;SDS011;24338;48.280;10.970;2023-03-01T20:37:36;28.00;;;17.10;;
38567;SDS011;24338;48.280;10.970;2023-03-01T20:40:03;28.90;;;16.73;;
38567;SDS011;24338;48.280;10.970;2023-03-01T20:42:30;29.23;;;17.70;;
38567;SDS011;24338;48.280;10.970;2023-03-01T20:44:57;30.13;;;16.77;;
38567;SDS011;24338;48.280;10.970;2023-03-01T20:47:24;30.05;;;17.85;;
38567;SDS011;24338;48.280;10.970;2023-03-01T20:49:51;28.80;;;16.98;;
38567;SDS011;24338;48.280;10.970;2023-03-01T20:52:18;30.23;;;17.23;;